sensor_id;sensor_type;location;lat;lon;timestamp;pressure;altitude;pressure_sealevel;temperature;humidity
48089;BME280;33867;50.314;7.802;2023-04-07T00:01:20;100302.00;;;6.86;nan
48089;BME280;33867;50.314;7.802;2023-04-07T00:04:39;100301.78;;;7.11;nan
48089;BME280;33867;50.314;7.802;2023-04-07T00:07:58;100301.84;;;7.32;nan
48089;BME280;33867;50.314;7.802;2023-04-07T00:11:18;100295.16;;;7.26;nan
48089;BME280;33867;50.314;7.802;2023-04-07T00:14:37;100293.94;;;7.30;nan
48089;BME280;33867;50.314;7.802;2023-04-07T00:18:01;100289.16;;;7.45;nan
48089;BME280;33867;50.314;7.802;2023-04-07T00:21:19;100288.59;;;7.19;nan
48089;BME280;33867;50.314;7.802;2023-04-07T00:29:17;100281.91;;;7.14;nan
48089;BME280;33867;50.314;7.802;2023-04-07T00:32:36;100286.16;;;7.27;nan
48089;BME280;33867;50.314;7.802;2023-04-07T00:36:03;100267.69;;;7.13;nan
48089;BME280;33867;50.314;7.802;2023-04-07T00:39:59;100271.31;;;7.35;nan
48089;BME280;33867;50.314;7.802;2023-04-07T00:43:22;100265.16;;;7.44;nan
48089;BME280;33867;50.314;7.802;2023-04-07T00:46:41;100271.50;;;7.43;nan
48089;BME280;33867;50.314;7.802;2023-04-07T00:50:03;100260.94;;;7.41;nan
48089;BME280;33867;50.314;7.802;2023-04-07T00:53:23;100253.38;;;7.46;nan
48089;BME280;33867;50.314;7.802;2023-04-07T00:57:05;100251.06;;;7.42;nan
48089;BME280;33867;50.314;7.802;2023-04-07T01:00:26;100256.63;;;7.61;nan
48089;BME280;33867;50.314;7.802;2023-04-07T01:13:30;100241.50;;;7.60;nan
48089;BME280;33867;50.314;7.802;2023-04-07T01:21:55;100231.00;;;7.68;nan
48089;BME280;33867;50.314;7.802;2023-04-07T01:28:55;100226.06;;;7.52;nan
48089;BME280;33867;50.314;7.802;2023-04-07T01:32:33;100226.16;;;7.62;nan
48089;BME280;33867;50.314;7.802;2023-04-07T01:35:58;100222.50;;;7.63;nan
48089;BME280;33867;50.314;7.802;2023-04-07T01:39:25;100219.28;;;7.69;nan
48089;BME280;33867;50.314;7.802;2023-04-07T01:42:49;100214.31;;;7.65;nan
48089;BME280;33867;50.314;7.802;2023-04-07T01:46:19;100214.81;;;7.70;nan
48089;BME280;33867;50.314;7.802;2023-04-07T01:49:44;100211.00;;;7.72;nan
48089;BME280;33867;50.314;7.802;2023-04-07T01:53:05;100207.00;;;7.67;nan
48089;BME280;33867;50.314;7.802;2023-04-07T01:56:25;100212.63;;;7.63;nan
48089;BME280;33867;50.314;7.802;2023-04-07T01:59:46;100203.69;;;7.74;nan
48089;BME280;33867;50.314;7.802;2023-04-07T02:03:11;100199.88;;;7.77;nan
48089;BME280;33867;50.314;7.802;2023-04-07T02:06:43;100202.97;;;7.72;nan
48089;BME280;33867;50.314;7.802;2023-04-07T02:10:20;100210.16;;;7.72;nan
48089;BME280;33867;50.314;7.802;2023-04-07T02:13:44;100199.50;;;7.17;nan
48089;BME280;33867;50.314;7.802;2023-04-07T02:17:06;100200.56;;;7.37;nan
48089;BME280;33867;50.314;7.802;2023-04-07T02:20:50;100199.00;;;7.55;nan
48089;BME280;33867;50.314;7.802;2023-04-07T02:24:10;100201.31;;;7.60;nan
48089;BME280;33867;50.314;7.802;2023-04-07T02:27:35;100197.66;;;7.61;nan
48089;BME280;33867;50.314;7.802;2023-04-07T02:30:56;100199.09;;;7.65;nan
48089;BME280;33867;50.314;7.802;2023-04-07T02:34:17;100206.16;;;7.66;nan
48089;BME280;33867;50.314;7.802;2023-04-07T02:37:38;100205.88;;;7.69;nan
48089;BME280;33867;50.314;7.802;2023-04-07T02:40:57;100200.78;;;7.66;nan
48089;BME280;33867;50.314;7.802;2023-04-07T02:44:17;100194.72;;;7.64;nan
48089;BME280;33867;50.314;7.802;2023-04-07T02:47:38;100199.44;;;7.72;nan
48089;BME280;33867;50.314;7.802;2023-04-07T02:50:57;100191.47;;;7.81;nan
48089;BME280;33867;50.314;7.802;2023-04-07T02:54:20;100196.75;;;7.72;nan
48089;BME280;33867;50.314;7.802;2023-04-07T02:57:42;100189.09;;;7.67;nan
48089;BME280;33867;50.314;7.802;2023-04-07T03:01:18;100194.09;;;7.72;nan
48089;BME280;33867;50.314;7.802;2023-04-07T03:04:37;100193.81;;;7.75;nan
48089;BME280;33867;50.314;7.802;2023-04-07T03:07:56;100185.13;;;7.82;nan
48089;BME280;33867;50.314;7.802;2023-04-07T03:11:16;100195.06;;;7.71;nan
48089;BME280;33867;50.314;7.802;2023-04-07T03:14:35;100183.59;;;7.69;nan
48089;BME280;33867;50.314;7.802;2023-04-07T03:17:55;100186.13;;;7.81;nan
48089;BME280;33867;50.314;7.802;2023-04-07T03:21:14;100187.53;;;7.32;nan
48089;BME280;33867;50.314;7.802;2023-04-07T03:24:38;100182.50;;;7.07;nan
48089;BME280;33867;50.314;7.802;2023-04-07T03:28:03;100178.78;;;7.30;nan
48089;BME280;33867;50.314;7.802;2023-04-07T03:31:26;100180.44;;;7.43;nan
48089;BME280;33867;50.314;7.802;2023-04-07T03:34:47;100175.28;;;7.51;nan
48089;BME280;33867;50.314;7.802;2023-04-07T03:38:07;100174.41;;;7.61;nan
48089;BME280;33867;50.314;7.802;2023-04-07T03:41:28;100186.69;;;7.64;nan
48089;BME280;33867;50.314;7.802;2023-04-07T03:44:47;100180.56;;;7.73;nan
48089;BME280;33867;50.314;7.802;2023-04-07T03:48:07;100180.81;;;7.70;nan
48089;BME280;33867;50.314;7.802;2023-04-07T03:51:32;100183.59;;;7.69;nan
48089;BME280;33867;50.314;7.802;2023-04-07T03:54:52;100182.03;;;7.66;nan
48089;BME280;33867;50.314;7.802;2023-04-07T03:58:15;100178.84;;;7.72;nan
48089;BME280;33867;50.314;7.802;2023-04-07T04:01:38;100190.28;;;7.74;nan
48089;BME280;33867;50.314;7.802;2023-04-07T04:05:08;100184.94;;;7.74;nan
48089;BME280;33867;50.314;7.802;2023-04-07T04:08:28;100183.09;;;7.75;nan
48089;BME280;33867;50.314;7.802;2023-04-07T04:11:47;100175.78;;;7.45;nan
48089;BME280;33867;50.314;7.802;2023-04-07T04:15:08;100174.16;;;7.21;nan
48089;BME280;33867;50.314;7.802;2023-04-07T04:18:42;100176.53;;;7.47;nan
48089;BME280;33867;50.314;7.802;2023-04-07T04:22:17;100179.22;;;7.68;nan
48089;BME280;33867;50.314;7.802;2023-04-07T04:25:43;100180.06;;;7.68;nan
48089;BME280;33867;50.314;7.802;2023-04-07T04:29:05;100184.22;;;7.72;nan
48089;BME280;33867;50.314;7.802;2023-04-07T04:32:25;100182.25;;;7.74;nan
48089;BME280;33867;50.314;7.802;2023-04-07T04:35:45;100190.41;;;7.73;nan
48089;BME280;33867;50.314;7.802;2023-04-07T04:39:07;100187.59;;;7.74;nan
48089;BME280;33867;50.314;7.802;2023-04-07T04:42:29;100179.69;;;7.73;nan
48089;BME280;33867;50.314;7.802;2023-04-07T04:45:57;100191.53;;;7.70;nan
48089;BME280;33867;50.314;7.802;2023-04-07T04:49:20;100190.50;;;7.82;nan
48089;BME280;33867;50.314;7.802;2023-04-07T04:53:04;100188.72;;;7.72;nan
48089;BME280;33867;50.314;7.802;2023-04-07T04:56:42;100191.13;;;7.75;nan
48089;BME280;33867;50.314;7.802;2023-04-07T05:00:03;100190.22;;;7.65;nan
48089;BME280;33867;50.314;7.802;2023-04-07T05:03:27;100188.97;;;7.69;nan
48089;BME280;33867;50.314;7.802;2023-04-07T05:07:09;100199.75;;;7.78;nan
48089;BME280;33867;50.314;7.802;2023-04-07T05:10:30;100199.53;;;7.81;nan
48089;BME280;33867;50.314;7.802;2023-04-07T05:14:03;100203.41;;;7.77;nan
48089;BME280;33867;50.314;7.802;2023-04-07T05:17:24;100202.91;;;7.83;nan
48089;BME280;33867;50.314;7.802;2023-04-07T05:20:47;100201.72;;;7.44;nan
48089;BME280;33867;50.314;7.802;2023-04-07T05:24:09;100203.88;;;7.61;nan
48089;BME280;33867;50.314;7.802;2023-04-07T05:27:33;100200.75;;;7.77;nan
48089;BME280;33867;50.314;7.802;2023-04-07T05:30:57;100203.16;;;7.80;nan
48089;BME280;33867;50.314;7.802;2023-04-07T05:34:23;100201.22;;;7.82;nan
48089;BME280;33867;50.314;7.802;2023-04-07T05:37:46;100196.88;;;7.91;nan
48089;BME280;33867;50.314;7.802;2023-04-07T05:41:06;100200.19;;;7.95;nan
48089;BME280;33867;50.314;7.802;2023-04-07T05:44:27;100205.28;;;7.98;nan
48089;BME280;33867;50.314;7.802;2023-04-07T05:47:48;100202.59;;;7.98;nan
48089;BME280;33867;50.314;7.802;2023-04-07T05:51:18;100203.31;;;8.00;nan
48089;BME280;33867;50.314;7.802;2023-04-07T05:54:37;100204.88;;;8.02;nan
48089;BME280;33867;50.314;7.802;2023-04-07T05:57:59;100206.69;;;8.02;nan
48089;BME280;33867;50.314;7.802;2023-04-07T06:01:22;100201.69;;;8.08;nan
48089;BME280;33867;50.314;7.802;2023-04-07T06:04:43;100207.41;;;8.04;nan
48089;BME280;33867;50.314;7.802;2023-04-07T06:08:06;100207.31;;;8.05;nan
48089;BME280;33867;50.314;7.802;2023-04-07T06:11:25;100204.22;;;8.10;nan
48089;BME280;33867;50.314;7.802;2023-04-07T06:14:51;100212.78;;;8.04;nan
48089;BME280;33867;50.314;7.802;2023-04-07T06:18:10;100209.03;;;8.16;nan
48089;BME280;33867;50.314;7.802;2023-04-07T06:21:29;100215.25;;;8.16;nan
48089;BME280;33867;50.314;7.802;2023-04-07T06:24:49;100222.66;;;8.24;nan
48089;BME280;33867;50.314;7.802;2023-04-07T06:28:09;100218.81;;;7.96;nan
48089;BME280;33867;50.314;7.802;2023-04-07T06:31:30;100229.84;;;8.03;nan
48089;BME280;33867;50.314;7.802;2023-04-07T06:34:59;100218.41;;;8.21;nan
48089;BME280;33867;50.314;7.802;2023-04-07T06:38:39;100225.09;;;8.48;nan
48089;BME280;33867;50.314;7.802;2023-04-07T06:41:58;100217.97;;;8.37;nan
48089;BME280;33867;50.314;7.802;2023-04-07T06:45:17;100219.44;;;8.51;nan
48089;BME280;33867;50.314;7.802;2023-04-07T06:48:36;100226.69;;;8.60;nan
48089;BME280;33867;50.314;7.802;2023-04-07T06:52:22;100231.41;;;8.68;nan
48089;BME280;33867;50.314;7.802;2023-04-07T06:56:09;100234.13;;;8.77;nan
48089;BME280;33867;50.314;7.802;2023-04-07T06:59:28;100234.22;;;8.66;nan
48089;BME280;33867;50.314;7.802;2023-04-07T07:02:48;100238.47;;;8.69;nan
48089;BME280;33867;50.314;7.802;2023-04-07T07:06:07;100240.50;;;8.86;nan
48089;BME280;33867;50.314;7.802;2023-04-07T07:09:26;100244.34;;;8.93;nan
48089;BME280;33867;50.314;7.802;2023-04-07T07:12:46;100244.50;;;8.92;nan
48089;BME280;33867;50.314;7.802;2023-04-07T07:16:05;100244.63;;;8.90;nan
48089;BME280;33867;50.314;7.802;2023-04-07T07:19:24;100247.88;;;8.94;nan
48089;BME280;33867;50.314;7.802;2023-04-07T07:22:43;100249.06;;;9.01;nan
48089;BME280;33867;50.314;7.802;2023-04-07T07:31:12;100257.88;;;9.13;nan
48089;BME280;33867;50.314;7.802;2023-04-07T07:34:52;100258.09;;;9.09;nan
48089;BME280;33867;50.314;7.802;2023-04-07T07:38:11;100260.53;;;9.13;nan
48089;BME280;33867;50.314;7.802;2023-04-07T07:41:30;100266.31;;;9.08;nan
48089;BME280;33867;50.314;7.802;2023-04-07T07:45:02;100272.28;;;9.12;nan
48089;BME280;33867;50.314;7.802;2023-04-07T07:48:23;100275.91;;;9.11;nan
48089;BME280;33867;50.314;7.802;2023-04-07T07:51:42;100268.31;;;9.16;nan
48089;BME280;33867;50.314;7.802;2023-04-07T07:55:06;100270.31;;;9.14;nan
48089;BME280;33867;50.314;7.802;2023-04-07T07:58:26;100288.34;;;9.02;nan
48089;BME280;33867;50.314;7.802;2023-04-07T08:01:45;100279.00;;;8.96;nan
48089;BME280;33867;50.314;7.802;2023-04-07T08:05:04;100293.72;;;9.02;nan
48089;BME280;33867;50.314;7.802;2023-04-07T08:13:36;100296.97;;;9.05;nan
48089;BME280;33867;50.314;7.802;2023-04-07T08:17:08;100289.81;;;9.16;nan
48089;BME280;33867;50.314;7.802;2023-04-07T08:20:27;100302.81;;;9.20;nan
48089;BME280;33867;50.314;7.802;2023-04-07T08:24:06;100309.88;;;9.21;nan
48089;BME280;33867;50.314;7.802;2023-04-07T08:27:34;100318.50;;;9.15;nan
48089;BME280;33867;50.314;7.802;2023-04-07T08:31:01;100317.66;;;9.15;nan
48089;BME280;33867;50.314;7.802;2023-04-07T08:35:15;100323.41;;;9.10;nan
48089;BME280;33867;50.314;7.802;2023-04-07T08:38:34;100319.41;;;8.95;nan
48089;BME280;33867;50.314;7.802;2023-04-07T08:41:54;100325.53;;;9.06;nan
48089;BME280;33867;50.314;7.802;2023-04-07T08:45:15;100331.09;;;9.15;nan
48089;BME280;33867;50.314;7.802;2023-04-07T08:49:13;100330.16;;;9.25;nan
48089;BME280;33867;50.314;7.802;2023-04-07T08:52:58;100330.91;;;9.47;nan
48089;BME280;33867;50.314;7.802;2023-04-07T08:57:04;100334.03;;;9.52;nan
48089;BME280;33867;50.314;7.802;2023-04-07T09:01:17;100332.34;;;9.51;nan
48089;BME280;33867;50.314;7.802;2023-04-07T09:04:54;100333.16;;;9.42;nan
48089;BME280;33867;50.314;7.802;2023-04-07T09:08:14;100341.25;;;9.51;nan
48089;BME280;33867;50.314;7.802;2023-04-07T09:11:37;100343.66;;;9.54;nan
48089;BME280;33867;50.314;7.802;2023-04-07T09:14:56;100345.66;;;9.52;nan
48089;BME280;33867;50.314;7.802;2023-04-07T09:18:16;100343.94;;;9.51;nan
48089;BME280;33867;50.314;7.802;2023-04-07T09:26:39;100356.34;;;9.43;nan
48089;BME280;33867;50.314;7.802;2023-04-07T09:30:12;100359.19;;;9.41;nan
48089;BME280;33867;50.314;7.802;2023-04-07T09:33:33;100356.47;;;9.31;nan
48089;BME280;33867;50.314;7.802;2023-04-07T09:36:55;100357.78;;;9.37;nan
48089;BME280;33867;50.314;7.802;2023-04-07T09:40:25;100359.50;;;9.48;nan
48089;BME280;33867;50.314;7.802;2023-04-07T09:43:45;100360.63;;;9.55;nan
48089;BME280;33867;50.314;7.802;2023-04-07T09:47:05;100356.28;;;9.63;nan
48089;BME280;33867;50.314;7.802;2023-04-07T09:50:31;100353.91;;;9.80;nan
48089;BME280;33867;50.314;7.802;2023-04-07T09:53:51;100358.34;;;10.00;nan
48089;BME280;33867;50.314;7.802;2023-04-07T09:57:11;100358.22;;;10.11;nan
48089;BME280;33867;50.314;7.802;2023-04-07T10:01:07;100362.50;;;10.23;nan
48089;BME280;33867;50.314;7.802;2023-04-07T10:04:52;100369.25;;;10.08;nan
48089;BME280;33867;50.314;7.802;2023-04-07T10:08:15;100370.09;;;9.99;nan
48089;BME280;33867;50.314;7.802;2023-04-07T10:11:46;100365.50;;;9.80;nan
48089;BME280;33867;50.314;7.802;2023-04-07T10:15:05;100370.19;;;9.78;nan
48089;BME280;33867;50.314;7.802;2023-04-07T10:18:28;100375.59;;;9.88;nan
48089;BME280;33867;50.314;7.802;2023-04-07T10:21:52;100373.88;;;9.87;nan
48089;BME280;33867;50.314;7.802;2023-04-07T10:25:27;100367.94;;;9.93;nan
48089;BME280;33867;50.314;7.802;2023-04-07T10:29:06;100379.69;;;9.92;nan
48089;BME280;33867;50.314;7.802;2023-04-07T10:45:55;100388.47;;;9.84;nan
48089;BME280;33867;50.314;7.802;2023-04-07T10:49:17;100393.00;;;9.84;nan
48089;BME280;33867;50.314;7.802;2023-04-07T11:00:23;100399.47;;;9.81;nan
48089;BME280;33867;50.314;7.802;2023-04-07T11:04:15;100408.16;;;10.04;nan
48089;BME280;33867;50.314;7.802;2023-04-07T11:07:43;100408.03;;;10.06;nan
48089;BME280;33867;50.314;7.802;2023-04-07T11:11:03;100406.41;;;10.34;nan
48089;BME280;33867;50.314;7.802;2023-04-07T11:14:31;100409.81;;;10.55;nan
48089;BME280;33867;50.314;7.802;2023-04-07T11:21:29;100416.59;;;10.78;nan
48089;BME280;33867;50.314;7.802;2023-04-07T11:29:29;100417.75;;;10.66;nan
48089;BME280;33867;50.314;7.802;2023-04-07T11:42:34;100418.59;;;10.38;nan
48089;BME280;33867;50.314;7.802;2023-04-07T11:49:45;100428.78;;;10.34;nan
48089;BME280;33867;50.314;7.802;2023-04-07T11:53:28;100425.38;;;10.61;nan
48089;BME280;33867;50.314;7.802;2023-04-07T11:56:56;100423.69;;;10.70;nan
48089;BME280;33867;50.314;7.802;2023-04-07T12:00:55;100428.09;;;10.80;nan
48089;BME280;33867;50.314;7.802;2023-04-07T12:05:04;100426.78;;;11.04;nan
48089;BME280;33867;50.314;7.802;2023-04-07T12:09:28;100427.84;;;11.30;nan
48089;BME280;33867;50.314;7.802;2023-04-07T12:17:47;100424.25;;;11.77;nan
48089;BME280;33867;50.314;7.802;2023-04-07T12:21:07;100427.34;;;11.45;nan
48089;BME280;33867;50.314;7.802;2023-04-07T12:24:26;100437.09;;;11.18;nan
48089;BME280;33867;50.314;7.802;2023-04-07T12:32:43;100453.44;;;10.88;nan
48089;BME280;33867;50.314;7.802;2023-04-07T12:36:02;100455.72;;;10.82;nan
48089;BME280;33867;50.314;7.802;2023-04-07T12:39:21;100452.72;;;10.86;nan
48089;BME280;33867;50.314;7.802;2023-04-07T12:42:49;100456.56;;;10.93;nan
48089;BME280;33867;50.314;7.802;2023-04-07T12:56:50;100464.78;;;10.91;nan
48089;BME280;33867;50.314;7.802;2023-04-07T13:00:10;100467.91;;;10.96;nan
48089;BME280;33867;50.314;7.802;2023-04-07T13:03:31;100465.91;;;10.89;nan
48089;BME280;33867;50.314;7.802;2023-04-07T13:06:50;100464.75;;;11.01;nan
48089;BME280;33867;50.314;7.802;2023-04-07T13:10:23;100467.03;;;11.05;nan
48089;BME280;33867;50.314;7.802;2023-04-07T13:13:42;100467.03;;;10.96;nan
48089;BME280;33867;50.314;7.802;2023-04-07T13:17:01;100471.88;;;10.82;nan
48089;BME280;33867;50.314;7.802;2023-04-07T13:21:10;100469.47;;;10.79;nan
48089;BME280;33867;50.314;7.802;2023-04-07T13:29:49;100475.81;;;10.98;nan
48089;BME280;33867;50.314;7.802;2023-04-07T13:37:29;100483.06;;;11.07;nan
48089;BME280;33867;50.314;7.802;2023-04-07T13:40:48;100478.66;;;11.06;nan
48089;BME280;33867;50.314;7.802;2023-04-07T13:44:07;100483.78;;;10.90;nan
48089;BME280;33867;50.314;7.802;2023-04-07T13:51:41;100485.19;;;10.94;nan
48089;BME280;33867;50.314;7.802;2023-04-07T13:55:00;100482.66;;;11.02;nan
48089;BME280;33867;50.314;7.802;2023-04-07T13:58:21;100479.81;;;11.13;nan
48089;BME280;33867;50.314;7.802;2023-04-07T14:01:43;100482.28;;;11.43;nan
48089;BME280;33867;50.314;7.802;2023-04-07T14:12:54;100478.91;;;12.06;nan
48089;BME280;33867;50.314;7.802;2023-04-07T14:16:17;100474.59;;;12.23;nan
48089;BME280;33867;50.314;7.802;2023-04-07T14:19:35;100465.88;;;12.29;nan
48089;BME280;33867;50.314;7.802;2023-04-07T14:22:57;100479.53;;;12.27;nan
48089;BME280;33867;50.314;7.802;2023-04-07T14:26:22;100490.78;;;12.23;nan
48089;BME280;33867;50.314;7.802;2023-04-07T14:29:49;100486.88;;;12.35;nan
48089;BME280;33867;50.314;7.802;2023-04-07T14:33:09;100484.66;;;12.48;nan
48089;BME280;33867;50.314;7.802;2023-04-07T14:36:29;100484.44;;;12.59;nan
48089;BME280;33867;50.314;7.802;2023-04-07T14:39:48;100473.22;;;12.54;nan
48089;BME280;33867;50.314;7.802;2023-04-07T14:43:07;100474.75;;;12.39;nan
48089;BME280;33867;50.314;7.802;2023-04-07T14:46:27;100472.09;;;12.12;nan
48089;BME280;33867;50.314;7.802;2023-04-07T14:49:46;100478.47;;;11.83;nan
48089;BME280;33867;50.314;7.802;2023-04-07T14:53:06;100482.22;;;11.63;nan
48089;BME280;33867;50.314;7.802;2023-04-07T14:56:25;100479.41;;;11.55;nan
48089;BME280;33867;50.314;7.802;2023-04-07T14:59:53;100485.66;;;11.46;nan
48089;BME280;33867;50.314;7.802;2023-04-07T15:03:15;100486.19;;;11.59;nan
48089;BME280;33867;50.314;7.802;2023-04-07T15:06:34;100486.28;;;11.77;nan
48089;BME280;33867;50.314;7.802;2023-04-07T15:09:53;100489.53;;;11.90;nan
48089;BME280;33867;50.314;7.802;2023-04-07T15:13:12;100482.75;;;11.76;nan
48089;BME280;33867;50.314;7.802;2023-04-07T15:16:31;100493.84;;;11.73;nan
48089;BME280;33867;50.314;7.802;2023-04-07T15:19:50;100493.72;;;11.55;nan
48089;BME280;33867;50.314;7.802;2023-04-07T15:23:14;100503.38;;;11.58;nan
48089;BME280;33867;50.314;7.802;2023-04-07T15:26:34;100499.81;;;11.57;nan
48089;BME280;33867;50.314;7.802;2023-04-07T15:29:53;100495.00;;;11.61;nan
48089;BME280;33867;50.314;7.802;2023-04-07T15:33:12;100489.66;;;11.41;nan
48089;BME280;33867;50.314;7.802;2023-04-07T15:36:31;100499.78;;;11.20;nan
48089;BME280;33867;50.314;7.802;2023-04-07T15:39:50;100505.75;;;11.14;nan
48089;BME280;33867;50.314;7.802;2023-04-07T15:43:22;100504.59;;;11.17;nan
48089;BME280;33867;50.314;7.802;2023-04-07T15:47:17;100506.16;;;11.19;nan
48089;BME280;33867;50.314;7.802;2023-04-07T15:50:36;100511.53;;;11.29;nan
48089;BME280;33867;50.314;7.802;2023-04-07T15:53:55;100507.53;;;11.42;nan
48089;BME280;33867;50.314;7.802;2023-04-07T15:57:14;100502.72;;;11.36;nan
48089;BME280;33867;50.314;7.802;2023-04-07T16:00:34;100513.25;;;11.30;nan
48089;BME280;33867;50.314;7.802;2023-04-07T16:03:55;100522.03;;;11.22;nan
48089;BME280;33867;50.314;7.802;2023-04-07T16:07:17;100525.47;;;11.15;nan
48089;BME280;33867;50.314;7.802;2023-04-07T16:10:38;100526.59;;;10.93;nan
48089;BME280;33867;50.314;7.802;2023-04-07T16:13:57;100529.16;;;10.84;nan
48089;BME280;33867;50.314;7.802;2023-04-07T16:17:16;100532.13;;;10.72;nan
48089;BME280;33867;50.314;7.802;2023-04-07T16:20:35;100531.94;;;10.64;nan
48089;BME280;33867;50.314;7.802;2023-04-07T16:23:54;100538.44;;;10.32;nan
48089;BME280;33867;50.314;7.802;2023-04-07T16:27:16;100544.38;;;10.36;nan
48089;BME280;33867;50.314;7.802;2023-04-07T16:30:36;100546.81;;;10.08;nan
48089;BME280;33867;50.314;7.802;2023-04-07T16:33:56;100534.47;;;10.06;nan
48089;BME280;33867;50.314;7.802;2023-04-07T16:37:17;100543.41;;;10.16;nan
48089;BME280;33867;50.314;7.802;2023-04-07T16:40:36;100554.16;;;10.37;nan
48089;BME280;33867;50.314;7.802;2023-04-07T16:43:55;100552.94;;;10.60;nan
48089;BME280;33867;50.314;7.802;2023-04-07T16:47:14;100552.38;;;10.66;nan
48089;BME280;33867;50.314;7.802;2023-04-07T16:50:34;100561.03;;;10.89;nan
48089;BME280;33867;50.314;7.802;2023-04-07T16:54:16;100565.00;;;10.75;nan
48089;BME280;33867;50.314;7.802;2023-04-07T16:58:04;100560.19;;;10.69;nan
48089;BME280;33867;50.314;7.802;2023-04-07T17:01:26;100566.41;;;10.70;nan
48089;BME280;33867;50.314;7.802;2023-04-07T17:04:45;100569.13;;;10.70;nan
48089;BME280;33867;50.314;7.802;2023-04-07T17:08:04;100575.19;;;10.62;nan
48089;BME280;33867;50.314;7.802;2023-04-07T17:11:23;100578.16;;;10.59;nan
48089;BME280;33867;50.314;7.802;2023-04-07T17:14:43;100577.84;;;10.43;nan
48089;BME280;33867;50.314;7.802;2023-04-07T17:18:02;100577.78;;;10.03;nan
48089;BME280;33867;50.314;7.802;2023-04-07T17:21:22;100583.94;;;10.14;nan
48089;BME280;33867;50.314;7.802;2023-04-07T17:24:41;100580.69;;;9.90;nan
48089;BME280;33867;50.314;7.802;2023-04-07T17:28:00;100589.69;;;9.79;nan
48089;BME280;33867;50.314;7.802;2023-04-07T17:31:19;100591.47;;;9.90;nan
48089;BME280;33867;50.314;7.802;2023-04-07T17:34:38;100596.97;;;9.88;nan
48089;BME280;33867;50.314;7.802;2023-04-07T17:37:57;100598.66;;;9.89;nan
48089;BME280;33867;50.314;7.802;2023-04-07T17:41:20;100601.94;;;9.93;nan
48089;BME280;33867;50.314;7.802;2023-04-07T17:44:40;100608.78;;;9.76;nan
48089;BME280;33867;50.314;7.802;2023-04-07T17:48:00;100610.06;;;9.72;nan
48089;BME280;33867;50.314;7.802;2023-04-07T17:51:19;100614.38;;;9.63;nan
48089;BME280;33867;50.314;7.802;2023-04-07T17:54:39;100633.13;;;9.75;nan
48089;BME280;33867;50.314;7.802;2023-04-07T17:58:00;100626.19;;;9.72;nan
48089;BME280;33867;50.314;7.802;2023-04-07T18:01:20;100627.03;;;9.73;nan
48089;BME280;33867;50.314;7.802;2023-04-07T18:04:40;100640.69;;;9.60;nan
48089;BME280;33867;50.314;7.802;2023-04-07T18:07:59;100647.13;;;9.57;nan
48089;BME280;33867;50.314;7.802;2023-04-07T18:11:19;100640.97;;;9.46;nan
48089;BME280;33867;50.314;7.802;2023-04-07T18:14:39;100640.28;;;9.32;nan
48089;BME280;33867;50.314;7.802;2023-04-07T18:18:02;100642.53;;;9.27;nan
48089;BME280;33867;50.314;7.802;2023-04-07T18:21:21;100648.41;;;9.21;nan
48089;BME280;33867;50.314;7.802;2023-04-07T18:24:40;100659.84;;;9.02;nan
48089;BME280;33867;50.314;7.802;2023-04-07T18:27:59;100665.72;;;8.85;nan
48089;BME280;33867;50.314;7.802;2023-04-07T18:31:20;100672.75;;;9.08;nan
48089;BME280;33867;50.314;7.802;2023-04-07T18:34:39;100674.31;;;9.11;nan
48089;BME280;33867;50.314;7.802;2023-04-07T18:37:59;100673.47;;;9.11;nan
48089;BME280;33867;50.314;7.802;2023-04-07T18:41:18;100671.44;;;9.03;nan
48089;BME280;33867;50.314;7.802;2023-04-07T18:44:37;100685.97;;;9.00;nan
48089;BME280;33867;50.314;7.802;2023-04-07T18:47:56;100690.41;;;8.68;nan
48089;BME280;33867;50.314;7.802;2023-04-07T18:51:16;100687.84;;;8.66;nan
48089;BME280;33867;50.314;7.802;2023-04-07T18:54:35;100698.03;;;8.28;nan
48089;BME280;33867;50.314;7.802;2023-04-07T18:57:54;100700.59;;;8.18;nan
48089;BME280;33867;50.314;7.802;2023-04-07T19:01:13;100705.00;;;8.19;nan
48089;BME280;33867;50.314;7.802;2023-04-07T19:04:32;100699.63;;;8.19;nan
48089;BME280;33867;50.314;7.802;2023-04-07T19:07:51;100712.03;;;8.09;nan
48089;BME280;33867;50.314;7.802;2023-04-07T19:11:10;100719.34;;;8.07;nan
48089;BME280;33867;50.314;7.802;2023-04-07T19:14:29;100714.63;;;7.75;nan
48089;BME280;33867;50.314;7.802;2023-04-07T19:17:48;100728.22;;;7.61;nan
48089;BME280;33867;50.314;7.802;2023-04-07T19:21:07;100726.78;;;7.44;nan
48089;BME280;33867;50.314;7.802;2023-04-07T19:24:27;100726.78;;;7.20;nan
48089;BME280;33867;50.314;7.802;2023-04-07T19:27:46;100733.00;;;7.21;nan
48089;BME280;33867;50.314;7.802;2023-04-07T19:31:06;100739.75;;;7.26;nan
48089;BME280;33867;50.314;7.802;2023-04-07T19:34:26;100735.19;;;7.40;nan
48089;BME280;33867;50.314;7.802;2023-04-07T19:37:45;100741.88;;;7.34;nan
48089;BME280;33867;50.314;7.802;2023-04-07T19:41:04;100739.06;;;7.36;nan
48089;BME280;33867;50.314;7.802;2023-04-07T19:44:24;100734.44;;;7.38;nan
48089;BME280;33867;50.314;7.802;2023-04-07T19:47:43;100741.16;;;7.43;nan
48089;BME280;33867;50.314;7.802;2023-04-07T19:51:02;100744.19;;;7.39;nan
48089;BME280;33867;50.314;7.802;2023-04-07T19:54:22;100741.22;;;7.30;nan
48089;BME280;33867;50.314;7.802;2023-04-07T19:57:41;100747.63;;;7.04;nan
48089;BME280;33867;50.314;7.802;2023-04-07T20:01:00;100754.03;;;7.14;nan
48089;BME280;33867;50.314;7.802;2023-04-07T20:04:22;100753.72;;;7.06;nan
48089;BME280;33867;50.314;7.802;2023-04-07T20:07:41;100761.63;;;6.71;nan
48089;BME280;33867;50.314;7.802;2023-04-07T20:11:00;100764.91;;;6.74;nan
48089;BME280;33867;50.314;7.802;2023-04-07T20:14:19;100774.00;;;6.85;nan
48089;BME280;33867;50.314;7.802;2023-04-07T20:17:38;100768.13;;;6.92;nan
48089;BME280;33867;50.314;7.802;2023-04-07T20:21:01;100776.06;;;6.81;nan
48089;BME280;33867;50.314;7.802;2023-04-07T20:24:21;100778.50;;;6.84;nan
48089;BME280;33867;50.314;7.802;2023-04-07T20:27:40;100773.81;;;6.62;nan